sensor_id;sensor_type;location;lat;lon;timestamp;P1;durP1;ratioP1;P2;durP2;ratioP2
53285;SDS011;39171;45.550;12.074;2023-11-22T00:00:21;10.00;;;8.27;;
53285;SDS011;39171;45.550;12.074;2023-11-22T00:06:23;10.93;;;7.78;;
53285;SDS011;39171;45.550;12.074;2023-11-22T00:12:24;9.10;;;7.50;;
53285;SDS011;39171;45.550;12.074;2023-11-22T00:18:26;7.93;;;6.90;;
53285;SDS011;39171;45.550;12.074;2023-11-22T00:24:28;8.05;;;7.25;;
53285;SDS011;39171;45.550;12.074;2023-11-22T00:30:29;8.43;;;7.35;;
53285;SDS011;39171;45.550;12.074;2023-11-22T00:36:31;8.02;;;7.05;;
53285;SDS011;39171;45.550;12.074;2023-11-22T00:42:32;8.10;;;7.03;;
53285;SDS011;39171;45.550;12.074;2023-11-22T00:48:33;8.63;;;7.60;;
53285;SDS011;39171;45.550;12.074;2023-11-22T00:54:35;8.48;;;7.13;;
53285;SDS011;39171;45.550;12.074;2023-11-22T01:00:36;8.52;;;7.63;;
53285;SDS011;39171;45.550;12.074;2023-11-22T01:06:38;8.52;;;7.63;;
53285;SDS011;39171;45.550;12.074;2023-11-22T01:12:41;9.25;;;7.20;;
53285;SDS011;39171;45.550;12.074;2023-11-22T01:18:43;8.27;;;6.80;;
53285;SDS011;39171;45.550;12.074;2023-11-22T01:24:46;8.07;;;6.78;;
53285;SDS011;39171;45.550;12.074;2023-11-22T01:30:48;7.40;;;6.40;;
53285;SDS011;39171;45.550;12.074;2023-11-22T01:36:50;7.75;;;6.80;;
53285;SDS011;39171;45.550;12.074;2023-11-22T01:42:52;7.47;;;6.35;;
53285;SDS011;39171;45.550;12.074;2023-11-22T01:48:55;7.35;;;6.53;;
53285;SDS011;39171;45.550;12.074;2023-11-22T01:55:01;7.82;;;6.60;;
53285;SDS011;39171;45.550;12.074;2023-11-22T02:01:07;6.43;;;5.82;;
53285;SDS011;39171;45.550;12.074;2023-11-22T02:07:10;8.68;;;7.18;;
53285;SDS011;39171;45.550;12.074;2023-11-22T02:13:12;7.72;;;6.93;;
53285;SDS011;39171;45.550;12.074;2023-11-22T02:19:15;7.90;;;6.68;;
53285;SDS011;39171;45.550;12.074;2023-11-22T02:25:17;8.45;;;7.32;;
53285;SDS011;39171;45.550;12.074;2023-11-22T02:31:18;8.02;;;7.18;;
53285;SDS011;39171;45.550;12.074;2023-11-22T02:37:20;9.35;;;7.35;;
53285;SDS011;39171;45.550;12.074;2023-11-22T02:43:23;8.02;;;7.20;;
53285;SDS011;39171;45.550;12.074;2023-11-22T02:49:25;9.85;;;7.60;;
53285;SDS011;39171;45.550;12.074;2023-11-22T02:55:26;9.88;;;8.38;;
53285;SDS011;39171;45.550;12.074;2023-11-22T03:01:27;9.63;;;7.82;;
53285;SDS011;39171;45.550;12.074;2023-11-22T03:07:29;9.20;;;7.35;;
53285;SDS011;39171;45.550;12.074;2023-11-22T03:13:32;7.75;;;6.88;;
53285;SDS011;39171;45.550;12.074;2023-11-22T03:19:33;8.38;;;7.22;;
53285;SDS011;39171;45.550;12.074;2023-11-22T03:25:35;7.50;;;6.70;;
53285;SDS011;39171;45.550;12.074;2023-11-22T03:31:37;7.13;;;6.43;;
53285;SDS011;39171;45.550;12.074;2023-11-22T03:37:39;6.85;;;6.07;;
53285;SDS011;39171;45.550;12.074;2023-11-22T03:43:41;6.97;;;6.28;;
53285;SDS011;39171;45.550;12.074;2023-11-22T03:49:43;7.90;;;6.72;;
53285;SDS011;39171;45.550;12.074;2023-11-22T03:55:44;8.77;;;7.32;;
53285;SDS011;39171;45.550;12.074;2023-11-22T04:01:46;7.88;;;6.40;;
53285;SDS011;39171;45.550;12.074;2023-11-22T04:07:47;7.22;;;6.50;;
53285;SDS011;39171;45.550;12.074;2023-11-22T04:13:48;6.13;;;5.47;;
53285;SDS011;39171;45.550;12.074;2023-11-22T04:19:50;7.32;;;6.38;;
53285;SDS011;39171;45.550;12.074;2023-11-22T04:25:51;7.40;;;6.60;;
53285;SDS011;39171;45.550;12.074;2023-11-22T04:31:53;7.25;;;6.50;;
53285;SDS011;39171;45.550;12.074;2023-11-22T04:37:54;6.82;;;6.13;;
53285;SDS011;39171;45.550;12.074;2023-11-22T04:43:56;7.22;;;6.25;;
53285;SDS011;39171;45.550;12.074;2023-11-22T04:49:57;6.72;;;5.78;;
53285;SDS011;39171;45.550;12.074;2023-11-22T04:55:59;7.07;;;5.93;;
53285;SDS011;39171;45.550;12.074;2023-11-22T05:02:02;6.88;;;6.15;;
53285;SDS011;39171;45.550;12.074;2023-11-22T05:08:04;8.02;;;6.47;;
53285;SDS011;39171;45.550;12.074;2023-11-22T05:14:05;6.80;;;6.10;;
53285;SDS011;39171;45.550;12.074;2023-11-22T05:20:08;7.85;;;7.05;;
53285;SDS011;39171;45.550;12.074;2023-11-22T05:26:10;7.60;;;6.25;;
53285;SDS011;39171;45.550;12.074;2023-11-22T05:32:11;7.38;;;6.38;;
53285;SDS011;39171;45.550;12.074;2023-11-22T05:38:13;7.85;;;6.70;;
53285;SDS011;39171;45.550;12.074;2023-11-22T05:44:14;7.90;;;6.75;;
53285;SDS011;39171;45.550;12.074;2023-11-22T05:50:16;6.82;;;6.07;;
53285;SDS011;39171;45.550;12.074;2023-11-22T05:56:17;8.23;;;7.03;;
53285;SDS011;39171;45.550;12.074;2023-11-22T06:02:19;7.25;;;6.30;;
53285;SDS011;39171;45.550;12.074;2023-11-22T06:08:21;7.78;;;6.95;;
53285;SDS011;39171;45.550;12.074;2023-11-22T06:14:22;7.10;;;6.40;;
53285;SDS011;39171;45.550;12.074;2023-11-22T06:20:24;7.75;;;6.78;;
53285;SDS011;39171;45.550;12.074;2023-11-22T06:26:27;7.72;;;6.53;;
53285;SDS011;39171;45.550;12.074;2023-11-22T06:32:29;7.70;;;6.75;;
53285;SDS011;39171;45.550;12.074;2023-11-22T06:38:30;7.63;;;6.55;;
53285;SDS011;39171;45.550;12.074;2023-11-22T06:44:32;7.20;;;6.45;;
53285;SDS011;39171;45.550;12.074;2023-11-22T06:50:33;7.70;;;6.53;;
53285;SDS011;39171;45.550;12.074;2023-11-22T06:56:35;7.20;;;5.97;;
53285;SDS011;39171;45.550;12.074;2023-11-22T07:02:39;6.30;;;5.70;;
53285;SDS011;39171;45.550;12.074;2023-11-22T07:08:41;7.55;;;5.82;;
53285;SDS011;39171;45.550;12.074;2023-11-22T07:14:45;6.57;;;5.82;;
53285;SDS011;39171;45.550;12.074;2023-11-22T07:20:47;6.55;;;5.85;;
53285;SDS011;39171;45.550;12.074;2023-11-22T07:26:57;6.70;;;5.60;;
53285;SDS011;39171;45.550;12.074;2023-11-22T07:33:11;7.25;;;6.25;;
53285;SDS011;39171;45.550;12.074;2023-11-22T07:39:12;9.68;;;8.00;;
53285;SDS011;39171;45.550;12.074;2023-11-22T07:45:14;8.75;;;7.03;;
53285;SDS011;39171;45.550;12.074;2023-11-22T07:51:16;8.98;;;7.40;;
53285;SDS011;39171;45.550;12.074;2023-11-22T07:57:17;7.15;;;5.78;;
53285;SDS011;39171;45.550;12.074;2023-11-22T08:03:21;6.50;;;5.50;;
53285;SDS011;39171;45.550;12.074;2023-11-22T08:09:26;6.82;;;6.00;;
53285;SDS011;39171;45.550;12.074;2023-11-22T08:15:32;5.60;;;5.03;;
53285;SDS011;39171;45.550;12.074;2023-11-22T08:21:38;6.50;;;5.20;;
53285;SDS011;39171;45.550;12.074;2023-11-22T08:27:40;6.18;;;4.88;;
53285;SDS011;39171;45.550;12.074;2023-11-22T08:33:44;5.00;;;4.25;;
53285;SDS011;39171;45.550;12.074;2023-11-22T08:39:46;4.22;;;3.50;;
53285;SDS011;39171;45.550;12.074;2023-11-22T08:45:54;4.47;;;3.95;;
53285;SDS011;39171;45.550;12.074;2023-11-22T08:52:05;4.05;;;3.20;;
53285;SDS011;39171;45.550;12.074;2023-11-22T08:58:08;3.17;;;2.67;;
53285;SDS011;39171;45.550;12.074;2023-11-22T09:04:11;3.00;;;2.70;;
53285;SDS011;39171;45.550;12.074;2023-11-22T09:10:14;3.40;;;2.67;;
53285;SDS011;39171;45.550;12.074;2023-11-22T09:16:26;3.63;;;2.88;;
53285;SDS011;39171;45.550;12.074;2023-11-22T09:22:30;2.83;;;2.33;;
53285;SDS011;39171;45.550;12.074;2023-11-22T09:28:32;2.80;;;2.25;;
53285;SDS011;39171;45.550;12.074;2023-11-22T09:34:33;2.95;;;2.38;;
53285;SDS011;39171;45.550;12.074;2023-11-22T09:40:36;3.20;;;2.20;;
53285;SDS011;39171;45.550;12.074;2023-11-22T09:46:44;2.65;;;2.13;;
53285;SDS011;39171;45.550;12.074;2023-11-22T09:52:50;2.97;;;2.20;;
53285;SDS011;39171;45.550;12.074;2023-11-22T09:58:54;2.63;;;2.05;;
53285;SDS011;39171;45.550;12.074;2023-11-22T10:04:58;2.60;;;2.05;;
53285;SDS011;39171;45.550;12.074;2023-11-22T10:10:59;2.28;;;1.70;;
53285;SDS011;39171;45.550;12.074;2023-11-22T10:17:01;2.70;;;1.92;;
53285;SDS011;39171;45.550;12.074;2023-11-22T10:23:07;2.47;;;1.73;;
53285;SDS011;39171;45.550;12.074;2023-11-22T10:29:09;2.50;;;1.88;;
53285;SDS011;39171;45.550;12.074;2023-11-22T10:35:14;2.15;;;1.55;;
53285;SDS011;39171;45.550;12.074;2023-11-22T10:41:15;2.63;;;1.80;;
53285;SDS011;39171;45.550;12.074;2023-11-22T10:47:18;2.30;;;1.63;;
53285;SDS011;39171;45.550;12.074;2023-11-22T10:53:24;2.20;;;1.50;;
53285;SDS011;39171;45.550;12.074;2023-11-22T10:59:37;2.20;;;1.67;;
53285;SDS011;39171;45.550;12.074;2023-11-22T11:06:05;1.90;;;1.40;;
53285;SDS011;39171;45.550;12.074;2023-11-22T11:12:11;2.95;;;1.90;;
53285;SDS011;39171;45.550;12.074;2023-11-22T11:18:13;2.22;;;1.50;;
53285;SDS011;39171;45.550;12.074;2023-11-22T11:24:19;1.83;;;1.30;;
53285;SDS011;39171;45.550;12.074;2023-11-22T11:36:52;3.15;;;1.40;;
53285;SDS011;39171;45.550;12.074;2023-11-22T11:42:58;1.95;;;1.33;;
53285;SDS011;39171;45.550;12.074;2023-11-22T11:49:00;1.75;;;1.35;;
53285;SDS011;39171;45.550;12.074;2023-11-22T11:55:07;2.22;;;1.40;;
53285;SDS011;39171;45.550;12.074;2023-11-22T12:01:08;2.22;;;1.55;;
53285;SDS011;39171;45.550;12.074;2023-11-22T12:07:13;2.38;;;1.35;;
53285;SDS011;39171;45.550;12.074;2023-11-22T12:13:18;1.83;;;1.10;;
53285;SDS011;39171;45.550;12.074;2023-11-22T12:19:23;1.92;;;1.20;;
53285;SDS011;39171;45.550;12.074;2023-11-22T12:25:27;1.60;;;1.10;;
53285;SDS011;39171;45.550;12.074;2023-11-22T12:31:30;2.00;;;1.67;;
53285;SDS011;39171;45.550;12.074;2023-11-22T12:37:35;1.38;;;0.98;;
53285;SDS011;39171;45.550;12.074;2023-11-22T12:43:37;1.77;;;1.17;;
53285;SDS011;39171;45.550;12.074;2023-11-22T12:49:47;2.28;;;1.20;;
53285;SDS011;39171;45.550;12.074;2023-11-22T12:55:49;2.15;;;1.35;;
53285;SDS011;39171;45.550;12.074;2023-11-22T13:01:52;4.00;;;1.58;;
53285;SDS011;39171;45.550;12.074;2023-11-22T13:07:58;2.20;;;1.38;;
53285;SDS011;39171;45.550;12.074;2023-11-22T13:14:00;1.73;;;1.20;;
53285;SDS011;39171;45.550;12.074;2023-11-22T13:20:01;2.20;;;1.20;;
53285;SDS011;39171;45.550;12.074;2023-11-22T13:26:04;2.25;;;1.40;;
53285;SDS011;39171;45.550;12.074;2023-11-22T13:32:06;1.75;;;1.30;;
53285;SDS011;39171;45.550;12.074;2023-11-22T13:38:08;1.55;;;1.10;;
53285;SDS011;39171;45.550;12.074;2023-11-22T13:44:13;1.65;;;1.10;;
53285;SDS011;39171;45.550;12.074;2023-11-22T13:50:15;1.83;;;1.13;;
53285;SDS011;39171;45.550;12.074;2023-11-22T13:56:27;1.67;;;1.10;;
53285;SDS011;39171;45.550;12.074;2023-11-22T14:02:28;1.40;;;1.05;;
53285;SDS011;39171;45.550;12.074;2023-11-22T14:08:32;2.03;;;1.30;;
53285;SDS011;39171;45.550;12.074;2023-11-22T14:14:33;2.20;;;1.27;;
53285;SDS011;39171;45.550;12.074;2023-11-22T14:20:35;1.90;;;0.98;;
53285;SDS011;39171;45.550;12.074;2023-11-22T14:26:37;1.73;;;1.00;;
53285;SDS011;39171;45.550;12.074;2023-11-22T14:32:39;1.48;;;1.00;;
53285;SDS011;39171;45.550;12.074;2023-11-22T14:38:41;1.75;;;0.73;;
53285;SDS011;39171;45.550;12.074;2023-11-22T14:44:43;1.85;;;1.10;;
53285;SDS011;39171;45.550;12.074;2023-11-22T14:50:45;1.95;;;1.20;;
53285;SDS011;39171;45.550;12.074;2023-11-22T14:56:47;1.65;;;1.08;;
53285;SDS011;39171;45.550;12.074;2023-11-22T15:02:49;1.23;;;0.90;;
53285;SDS011;39171;45.550;12.074;2023-11-22T15:08:54;1.73;;;0.98;;
53285;SDS011;39171;45.550;12.074;2023-11-22T15:14:59;2.00;;;1.20;;
53285;SDS011;39171;45.550;12.074;2023-11-22T15:21:01;2.30;;;1.35;;
53285;SDS011;39171;45.550;12.074;2023-11-22T15:27:03;2.95;;;1.60;;
53285;SDS011;39171;45.550;12.074;2023-11-22T15:33:04;1.77;;;1.30;;
53285;SDS011;39171;45.550;12.074;2023-11-22T15:39:06;1.70;;;1.00;;
53285;SDS011;39171;45.550;12.074;2023-11-22T15:45:12;3.10;;;1.60;;
53285;SDS011;39171;45.550;12.074;2023-11-22T15:51:13;2.30;;;1.20;;
53285;SDS011;39171;45.550;12.074;2023-11-22T15:57:17;2.05;;;1.20;;
53285;SDS011;39171;45.550;12.074;2023-11-22T16:03:18;1.80;;;1.20;;
53285;SDS011;39171;45.550;12.074;2023-11-22T16:09:20;1.88;;;1.35;;
53285;SDS011;39171;45.550;12.074;2023-11-22T16:15:21;2.90;;;1.58;;
53285;SDS011;39171;45.550;12.074;2023-11-22T16:21:23;1.50;;;1.10;;
53285;SDS011;39171;45.550;12.074;2023-11-22T16:27:25;2.05;;;1.38;;
53285;SDS011;39171;45.550;12.074;2023-11-22T16:33:27;2.33;;;1.38;;
53285;SDS011;39171;45.550;12.074;2023-11-22T16:39:29;2.25;;;1.50;;
53285;SDS011;39171;45.550;12.074;2023-11-22T16:45:31;2.70;;;1.60;;
53285;SDS011;39171;45.550;12.074;2023-11-22T16:51:32;1.60;;;1.30;;
53285;SDS011;39171;45.550;12.074;2023-11-22T16:57:34;2.10;;;1.40;;
53285;SDS011;39171;45.550;12.074;2023-11-22T17:03:37;1.52;;;1.02;;
53285;SDS011;39171;45.550;12.074;2023-11-22T17:09:41;1.60;;;1.17;;
53285;SDS011;39171;45.550;12.074;2023-11-22T17:15:43;2.55;;;1.35;;
53285;SDS011;39171;45.550;12.074;2023-11-22T17:21:45;1.83;;;1.33;;
53285;SDS011;39171;45.550;12.074;2023-11-22T17:27:47;2.60;;;1.58;;
53285;SDS011;39171;45.550;12.074;2023-11-22T17:33:48;2.28;;;1.60;;
53285;SDS011;39171;45.550;12.074;2023-11-22T17:39:50;2.33;;;1.58;;
53285;SDS011;39171;45.550;12.074;2023-11-22T17:45:52;2.80;;;1.55;;
53285;SDS011;39171;45.550;12.074;2023-11-22T17:51:54;2.67;;;1.65;;
53285;SDS011;39171;45.550;12.074;2023-11-22T17:57:55;2.97;;;2.03;;
53285;SDS011;39171;45.550;12.074;2023-11-22T18:03:57;2.50;;;1.80;;
53285;SDS011;39171;45.550;12.074;2023-11-22T18:09:59;3.45;;;2.17;;
53285;SDS011;39171;45.550;12.074;2023-11-22T18:16:00;3.30;;;2.10;;
53285;SDS011;39171;45.550;12.074;2023-11-22T18:22:02;3.75;;;2.30;;
53285;SDS011;39171;45.550;12.074;2023-11-22T18:28:03;3.42;;;2.20;;
53285;SDS011;39171;45.550;12.074;2023-11-22T18:34:07;3.10;;;2.05;;
53285;SDS011;39171;45.550;12.074;2023-11-22T18:40:09;3.78;;;2.50;;
53285;SDS011;39171;45.550;12.074;2023-11-22T18:46:11;3.78;;;2.97;;
53285;SDS011;39171;45.550;12.074;2023-11-22T18:52:12;4.20;;;3.40;;
53285;SDS011;39171;45.550;12.074;2023-11-22T18:58:14;4.60;;;3.35;;
53285;SDS011;39171;45.550;12.074;2023-11-22T19:04:16;5.05;;;3.70;;
53285;SDS011;39171;45.550;12.074;2023-11-22T19:10:18;5.03;;;4.05;;
53285;SDS011;39171;45.550;12.074;2023-11-22T19:16:20;5.43;;;4.50;;
53285;SDS011;39171;45.550;12.074;2023-11-22T19:22:24;5.15;;;4.45;;
53285;SDS011;39171;45.550;12.074;2023-11-22T19:28:26;6.70;;;5.38;;
53285;SDS011;39171;45.550;12.074;2023-11-22T19:34:28;6.53;;;5.72;;
53285;SDS011;39171;45.550;12.074;2023-11-22T19:40:36;7.10;;;5.93;;
53285;SDS011;39171;45.550;12.074;2023-11-22T19:46:38;6.93;;;6.15;;
53285;SDS011;39171;45.550;12.074;2023-11-22T19:52:39;9.70;;;7.22;;
53285;SDS011;39171;45.550;12.074;2023-11-22T19:58:41;8.23;;;6.75;;
53285;SDS011;39171;45.550;12.074;2023-11-22T20:04:46;7.57;;;6.40;;
53285;SDS011;39171;45.550;12.074;2023-11-22T20:10:48;7.90;;;6.50;;
53285;SDS011;39171;45.550;12.074;2023-11-22T20:16:49;7.22;;;6.53;;
53285;SDS011;39171;45.550;12.074;2023-11-22T20:22:51;7.10;;;6.28;;
53285;SDS011;39171;45.550;12.074;2023-11-22T20:28:53;6.57;;;5.75;;
53285;SDS011;39171;45.550;12.074;2023-11-22T20:34:54;6.85;;;5.70;;
53285;SDS011;39171;45.550;12.074;2023-11-22T20:40:59;7.30;;;5.95;;
53285;SDS011;39171;45.550;12.074;2023-11-22T20:47:00;7.45;;;6.05;;
53285;SDS011;39171;45.550;12.074;2023-11-22T20:53:04;6.88;;;6.13;;
53285;SDS011;39171;45.550;12.074;2023-11-22T20:59:06;6.95;;;6.07;;
53285;SDS011;39171;45.550;12.074;2023-11-22T21:05:08;6.95;;;5.93;;
53285;SDS011;39171;45.550;12.074;2023-11-22T21:11:10;7.60;;;6.10;;
53285;SDS011;39171;45.550;12.074;2023-11-22T21:17:14;7.25;;;5.57;;
53285;SDS011;39171;45.550;12.074;2023-11-22T21:23:17;6.65;;;5.95;;
53285;SDS011;39171;45.550;12.074;2023-11-22T21:29:18;6.50;;;5.43;;
53285;SDS011;39171;45.550;12.074;2023-11-22T21:35:23;7.88;;;5.45;;
53285;SDS011;39171;45.550;12.074;2023-11-22T21:41:25;5.85;;;4.85;;
53285;SDS011;39171;45.550;12.074;2023-11-22T21:47:26;5.03;;;4.45;;
53285;SDS011;39171;45.550;12.074;2023-11-22T21:53:28;5.68;;;4.40;;
53285;SDS011;39171;45.550;12.074;2023-11-22T21:59:29;4.90;;;3.97;;
53285;SDS011;39171;45.550;12.074;2023-11-22T22:05:31;4.40;;;3.75;;
53285;SDS011;39171;45.550;12.074;2023-11-22T22:11:33;4.00;;;3.30;;
53285;SDS011;39171;45.550;12.074;2023-11-22T22:17:34;3.80;;;3.28;;
53285;SDS011;39171;45.550;12.074;2023-11-22T22:23:36;2.97;;;2.55;;
53285;SDS011;39171;45.550;12.074;2023-11-22T22:29:39;3.42;;;2.80;;
53285;SDS011;39171;45.550;12.074;2023-11-22T22:35:40;3.60;;;2.58;;
53285;SDS011;39171;45.550;12.074;2023-11-22T22:41:42;3.80;;;2.97;;
53285;SDS011;39171;45.550;12.074;2023-11-22T22:47:43;3.33;;;2.83;;
53285;SDS011;39171;45.550;12.074;2023-11-22T22:53:45;3.67;;;2.75;;
53285;SDS011;39171;45.550;12.074;2023-11-22T22:59:49;3.53;;;2.80;;
53285;SDS011;39171;45.550;12.074;2023-11-22T23:05:51;3.47;;;2.90;;
53285;SDS011;39171;45.550;12.074;2023-11-22T23:11:53;3.38;;;2.90;;
53285;SDS011;39171;45.550;12.074;2023-11-22T23:17:54;3.95;;;3.10;;
53285;SDS011;39171;45.550;12.074;2023-11-22T23:23:56;3.50;;;3.13;;
53285;SDS011;39171;45.550;12.074;2023-11-22T23:29:58;3.50;;;2.78;;
53285;SDS011;39171;45.550;12.074;2023-11-22T23:36:01;3.78;;;2.97;;
53285;SDS011;39171;45.550;12.074;2023-11-22T23:42:09;3.83;;;3.20;;
53285;SDS011;39171;45.550;12.074;2023-11-22T23:48:14;3.45;;;2.95;;
53285;SDS011;39171;45.550;12.074;2023-11-22T23:54:16;4.05;;;3.05;;
